Time;durP1;ratioP1;P1;durP2;ratioP2;P2;SDS_P1;SDS_P2;PMS_P1;PMS_P2;Temp;Humidity;BMP_temperature;BMP_pressure;BME280_temperature;BME280_humidity;BME280_pressure;Samples;Min_cycle;Max_cycle;Signal;HPM_P1;HPM_P2
2022/09/19 00:01:13;;;;;;;13.80;3.10;;;12.80;99.90;;;;;;5072751;28;20040;-61
2022/09/19 00:03:41;;;;;;;12.98;3.17;;;12.70;99.90;;;;;;5073979;28;20161;-61
2022/09/19 00:06:11;;;;;;;11.75;2.75;;;12.80;99.90;;;;;;5093156;28;20048;-62
2022/09/19 00:08:42;;;;;;;14.40;3.15;;;12.80;99.90;;;;;;5077377;28;20050;-61
2022/09/19 00:11:08;;;;;;;15.23;2.85;;;12.80;99.90;;;;;;5077299;28;20571;-61
2022/09/19 00:13:36;;;;;;;14.18;3.22;;;12.80;99.90;;;;;;5077819;28;20561;-61
2022/09/19 00:16:02;;;;;;;10.82;2.75;;;12.80;99.90;;;;;;5094577;28;20047;-61
2022/09/19 00:18:28;;;;;;;17.40;3.78;;;12.80;99.90;;;;;;5077997;28;20468;-61
2022/09/19 00:20:54;;;;;;;10.55;2.88;;;12.80;99.90;;;;;;5095421;28;20110;-61
2022/09/19 00:26:07;;;;;;;13.50;3.33;;;12.70;99.90;;;;;;5094219;28;20051;-62
2022/09/19 00:28:34;;;;;;;11.48;2.70;;;12.60;99.90;;;;;;5077553;28;20048;-62
2022/09/19 00:31:00;;;;;;;19.50;4.07;;;12.60;99.90;;;;;;5076231;28;20515;-62
2022/09/19 00:33:30;;;;;;;12.38;2.90;;;12.70;99.90;;;;;;5095897;28;20036;-62
2022/09/19 00:35:57;;;;;;;13.55;2.35;;;12.70;99.90;;;;;;5094961;28;20123;-61
2022/09/19 00:38:27;;;;;;;12.65;2.55;;;12.60;99.90;;;;;;5094809;28;20040;-62
2022/09/19 00:40:55;;;;;;;9.90;2.50;;;12.60;99.90;;;;;;5076968;28;20032;-62
2022/09/19 00:43:22;;;;;;;13.07;2.53;;;12.70;99.90;;;;;;5076791;28;20048;-61
2022/09/19 00:45:48;;;;;;;13.32;2.78;;;12.80;99.90;;;;;;5094655;28;20082;-61
2022/09/19 00:48:16;;;;;;;11.48;3.22;;;12.90;99.90;;;;;;5077182;28;20075;-62
2022/09/19 00:50:50;;;;;;;9.63;2.53;;;12.90;99.90;;;;;;5094634;28;20040;-62
2022/09/19 00:53:20;;;;;;;12.98;2.60;;;12.90;99.90;;;;;;5095289;28;20046;-61
2022/09/19 00:55:51;;;;;;;13.05;2.58;;;13.00;99.90;;;;;;5094449;28;20354;-62
2022/09/19 00:58:28;;;;;;;9.65;2.72;;;13.00;99.90;;;;;;5094656;28;20100;-62
2022/09/19 01:00:55;;;;;;;15.90;2.72;;;13.00;99.90;;;;;;5059652;28;20043;-61
2022/09/19 01:03:24;;;;;;;12.88;2.45;;;13.00;99.90;;;;;;5077412;28;20119;-62
2022/09/19 01:06:21;;;;;;;11.43;3.45;;;13.10;99.90;;;;;;5093661;28;20069;-62
2022/09/19 01:08:54;;;;;;;14.98;2.88;;;13.10;99.90;;;;;;5076384;28;20048;-62
2022/09/19 01:12:01;;;;;;;23.42;4.18;;;13.10;99.90;;;;;;5076195;28;20051;-61
2022/09/19 01:14:30;;;;;;;10.10;2.35;;;13.10;99.90;;;;;;5094686;28;20399;-61
2022/09/19 01:17:23;;;;;;;12.55;2.75;;;13.10;99.90;;;;;;5075785;28;20044;-62
2022/09/19 01:20:21;;;;;;;11.07;2.70;;;13.10;99.90;;;;;;5093569;28;20032;-62
2022/09/19 01:23:15;;;;;;;17.25;3.22;;;13.10;99.90;;;;;;5093985;28;20048;-62
2022/09/19 01:25:55;;;;;;;14.52;3.42;;;13.10;99.90;;;;;;5076269;28;20123;-61
2022/09/19 01:28:24;;;;;;;20.33;2.90;;;13.00;99.90;;;;;;5094485;28;20516;-61
2022/09/19 01:31:18;;;;;;;12.60;3.95;;;13.00;99.90;;;;;;5075955;28;20400;-61
2022/09/19 01:34:05;;;;;;;13.63;3.30;;;13.00;99.90;;;;;;5094000;28;20036;-61
2022/09/19 01:37:03;;;;;;;20.63;3.88;;;13.10;99.90;;;;;;5094351;28;20522;-62
2022/09/19 01:39:31;;;;;;;14.88;3.90;;;13.10;99.90;;;;;;5067956;28;20557;-62
2022/09/19 01:41:59;;;;;;;12.70;3.05;;;13.10;99.90;;;;;;5076219;28;20040;-62
2022/09/19 01:44:27;;;;;;;16.95;3.47;;;13.10;99.90;;;;;;5076142;28;20044;-61
2022/09/19 01:47:08;;;;;;;17.88;3.47;;;13.10;99.90;;;;;;5093063;28;20063;-61
2022/09/19 01:49:55;;;;;;;11.15;2.88;;;13.20;99.90;;;;;;5094177;28;20044;-62
2022/09/19 01:53:01;;;;;;;13.18;3.30;;;13.20;99.90;;;;;;5076004;28;20036;-61
2022/09/19 01:55:30;;;;;;;10.07;3.45;;;13.20;99.90;;;;;;5075246;28;20066;-62
2022/09/19 01:58:09;;;;;;;13.15;2.67;;;13.10;99.90;;;;;;5075402;28;20040;-62
2022/09/19 02:00:42;;;;;;;15.30;2.95;;;13.10;99.90;;;;;;5093358;28;20032;-62
2022/09/19 02:03:27;;;;;;;9.75;2.63;;;13.00;99.90;;;;;;5093519;28;20040;-62
2022/09/19 02:06:02;;;;;;;11.32;2.50;;;12.90;99.90;;;;;;5093419;28;20090;-62
2022/09/19 02:08:45;;;;;;;13.82;2.10;;;12.80;99.90;;;;;;5093034;28;20124;-62
2022/09/19 02:11:17;;;;;;;10.48;3.28;;;12.80;99.90;;;;;;5093987;28;20086;-62
2022/09/19 02:13:48;;;;;;;16.33;3.92;;;12.80;99.90;;;;;;5093680;28;20040;-61
2022/09/19 02:16:36;;;;;;;11.57;2.67;;;12.80;99.90;;;;;;5092728;28;20549;-62
2022/09/19 02:19:42;;;;;;;13.45;3.03;;;12.80;99.90;;;;;;5075137;28;20365;-62
2022/09/19 02:22:22;;;;;;;13.80;2.55;;;12.90;99.90;;;;;;5010038;28;20065;-61
2022/09/19 02:24:51;;;;;;;12.63;2.72;;;13.00;99.90;;;;;;5086650;28;20173;-62
2022/09/19 02:27:22;;;;;;;8.98;2.83;;;13.00;99.90;;;;;;5093218;28;20071;-62
2022/09/19 02:29:53;;;;;;;6.93;2.20;;;13.00;99.90;;;;;;5074328;28;20491;-61
2022/09/19 02:32:21;;;;;;;14.50;3.45;;;13.10;99.90;;;;;;5075632;28;20039;-61
2022/09/19 02:34:49;;;;;;;12.10;2.47;;;13.10;99.90;;;;;;5074500;28;20111;-62
2022/09/19 02:38:01;;;;;;;8.32;2.60;;;13.10;99.90;;;;;;5092611;28;20085;-61
2022/09/19 02:40:36;;;;;;;11.43;2.97;;;13.10;99.90;;;;;;4994982;28;20046;-61
2022/09/19 02:43:07;;;;;;;;;;;13.10;99.90;;;;;;5069219;28;20052;-62
2022/09/19 02:45:41;;;;;;;10.52;2.63;;;13.10;99.90;;;;;;5093221;28;20003;-62
2022/09/19 02:48:56;;;;;;;11.73;3.17;;;13.00;99.90;;;;;;5092584;28;20107;-61
2022/09/19 02:51:37;;;;;;;10.40;3.17;;;12.80;99.90;;;;;;5031567;28;20404;-62
2022/09/19 02:54:11;;;;;;;11.70;3.40;;;12.70;99.90;;;;;;5074276;28;20101;-62
2022/09/19 02:56:41;;;;;;;14.75;2.58;;;12.60;99.90;;;;;;5092577;28;20036;-61
2022/09/19 02:59:18;;;;;;;13.65;3.20;;;12.60;99.90;;;;;;5091823;28;20042;-61
2022/09/19 03:01:52;;;;;;;13.82;2.97;;;12.60;99.90;;;;;;5058234;28;20486;-62
2022/09/19 03:04:24;;;;;;;13.85;3.33;;;12.50;99.90;;;;;;5092263;28;20036;-61
2022/09/19 03:07:00;;;;;;;13.05;3.10;;;12.50;99.90;;;;;;5074576;28;20097;-61
2022/09/19 03:09:31;;;;;;;13.63;3.45;;;12.60;99.90;;;;;;5074753;28;20044;-61
2022/09/19 03:12:05;;;;;;;14.60;3.22;;;12.60;99.90;;;;;;5091587;28;20036;-61
2022/09/19 03:14:32;;;;;;;13.10;3.30;;;12.60;99.90;;;;;;5074631;28;20044;-61
2022/09/19 03:17:00;;;;;;;10.88;2.88;;;12.60;99.90;;;;;;5092227;28;20266;-61
2022/09/19 03:19:27;;;;;;;16.60;3.60;;;12.60;99.90;;;;;;5091686;28;20115;-61
2022/09/19 03:21:54;;;;;;;15.35;3.28;;;12.60;99.90;;;;;;5091788;28;20381;-61
2022/09/19 03:24:22;;;;;;;9.15;2.50;;;12.70;99.90;;;;;;5092737;28;20397;-61
2022/09/19 03:26:48;;;;;;;14.82;2.55;;;12.80;99.90;;;;;;5073074;28;20044;-61
2022/09/19 03:29:15;;;;;;;9.85;3.13;;;12.80;99.90;;;;;;5074436;28;20515;-62
2022/09/19 03:31:45;;;;;;;19.02;2.85;;;12.80;99.90;;;;;;5092461;28;20180;-61
2022/09/19 03:34:12;;;;;;;12.75;2.80;;;12.80;99.90;;;;;;5073671;28;20047;-61
2022/09/19 03:36:39;;;;;;;8.30;2.75;;;12.80;99.90;;;;;;5074528;28;20093;-62
2022/09/19 03:39:05;;;;;;;11.70;2.90;;;12.70;99.90;;;;;;5072989;28;20535;-61
2022/09/19 03:41:31;;;;;;;9.20;2.60;;;12.70;99.90;;;;;;5062100;28;20100;-61
2022/09/19 03:43:59;;;;;;;7.72;1.63;;;12.60;99.90;;;;;;5098566;28;20111;-62
2022/09/19 03:46:26;;;;;;;8.75;1.77;;;12.60;99.90;;;;;;5098282;28;20048;-62
2022/09/19 03:48:52;;;;;;;8.60;2.65;;;12.70;99.90;;;;;;5098719;28;20441;-62
2022/09/19 03:51:18;;;;;;;8.93;2.15;;;12.70;99.90;;;;;;5064192;28;20079;-61
2022/09/19 03:53:45;;;;;;;17.33;3.38;;;12.70;99.90;;;;;;5079959;28;20541;-61
2022/09/19 03:56:12;;;;;;;11.23;2.85;;;12.70;99.90;;;;;;5080610;28;20040;-61
2022/09/19 03:58:40;;;;;;;13.90;2.75;;;12.70;99.90;;;;;;5081182;28;20113;-61
2022/09/19 04:01:06;;;;;;;10.25;2.70;;;12.70;99.90;;;;;;5079372;28;20127;-62
2022/09/19 04:03:33;;;;;;;6.43;2.20;;;12.70;99.90;;;;;;5080690;28;20054;-62
2022/09/19 04:06:00;;;;;;;13.18;2.47;;;12.70;99.90;;;;;;5080095;28;20058;-62
2022/09/19 04:08:26;;;;;;;12.18;2.75;;;12.60;99.90;;;;;;5098201;28;20434;-62
2022/09/19 04:10:52;;;;;;;8.95;2.17;;;12.70;99.90;;;;;;5063375;28;20040;-61
2022/09/19 04:13:20;;;;;;;13.00;4.00;;;12.60;99.90;;;;;;5098623;28;20115;-61
2022/09/19 04:15:46;;;;;;;13.82;3.08;;;12.70;99.90;;;;;;5097317;28;20057;-62
2022/09/19 04:18:12;;;;;;;14.35;3.38;;;12.70;99.90;;;;;;5098972;28;20036;-61
2022/09/19 04:20:39;;;;;;;12.05;3.40;;;12.70;99.90;;;;;;5080901;28;20042;-62
2022/09/19 04:23:05;;;;;;;9.02;2.25;;;12.70;99.90;;;;;;5079195;28;20134;-61
2022/09/19 04:25:35;;;;;;;10.73;2.58;;;12.80;99.90;;;;;;5080624;28;20090;-62
2022/09/19 04:28:07;;;;;;;9.55;2.08;;;12.90;99.90;;;;;;5080109;28;20122;-62
2022/09/19 04:30:35;;;;;;;11.88;2.35;;;12.90;99.90;;;;;;5097871;28;20443;-62
2022/09/19 04:33:03;;;;;;;11.48;2.80;;;12.90;99.90;;;;;;5080034;28;20507;-61
2022/09/19 04:35:36;;;;;;;8.20;2.53;;;13.00;99.90;;;;;;5097950;28;20122;-62
2022/09/19 04:38:03;;;;;;;11.05;2.42;;;13.00;99.90;;;;;;5098242;28;20036;-62
2022/09/19 04:40:29;;;;;;;13.88;3.10;;;13.00;99.90;;;;;;5098628;28;20036;-61
2022/09/19 04:42:55;;;;;;;8.90;2.72;;;13.10;99.90;;;;;;5097068;28;20036;-61
2022/09/19 04:45:21;;;;;;;12.13;2.83;;;13.10;99.90;;;;;;5098678;28;20075;-61
2022/09/19 04:47:47;;;;;;;7.78;2.05;;;13.10;99.90;;;;;;5063459;28;20056;-62
2022/09/19 04:50:14;;;;;;;9.07;2.45;;;13.20;99.90;;;;;;5079588;28;20051;-61
2022/09/19 04:52:41;;;;;;;13.45;2.80;;;13.10;99.90;;;;;;5077332;28;20085;-62
2022/09/19 04:55:08;;;;;;;10.93;2.25;;;13.10;99.90;;;;;;5094711;28;20039;-61
2022/09/19 04:57:33;;;;;;;12.10;2.20;;;13.10;99.90;;;;;;5076491;28;20044;-62
2022/09/19 04:59:59;;;;;;;13.05;2.40;;;13.10;99.90;;;;;;5094596;28;20043;-61
2022/09/19 05:02:29;;;;;;;12.70;3.17;;;13.20;99.90;;;;;;5060389;28;20040;-61
2022/09/19 05:04:55;;;;;;;13.02;2.30;;;13.20;99.90;;;;;;5094181;28;20449;-62
2022/09/19 05:07:21;;;;;;;11.00;2.90;;;13.20;99.90;;;;;;5095007;28;20039;-62
2022/09/19 05:09:46;;;;;;;8.88;2.80;;;13.20;99.90;;;;;;5076290;28;20047;-62
2022/09/19 05:12:12;;;;;;;11.02;2.78;;;13.10;99.90;;;;;;5094261;28;20077;-61
2022/09/19 05:14:38;;;;;;;8.35;2.03;;;13.10;99.90;;;;;;5076703;28;20087;-61
2022/09/19 05:17:03;;;;;;;8.13;1.85;;;13.10;99.90;;;;;;5094399;28;20044;-61
2022/09/19 05:19:32;;;;;;;9.27;2.63;;;13.10;99.90;;;;;;5094152;28;20042;-61
2022/09/19 05:21:57;;;;;;;10.73;2.28;;;13.10;99.90;;;;;;5093935;28;20094;-61
2022/09/19 05:24:23;;;;;;;8.18;2.03;;;13.10;99.90;;;;;;5094663;28;20071;-61
2022/09/19 05:26:49;;;;;;;11.18;2.63;;;13.20;99.90;;;;;;5093569;28;20040;-61
2022/09/19 05:29:15;;;;;;;12.73;2.38;;;13.10;99.90;;;;;;5094835;28;20039;-61
2022/09/19 05:31:44;;;;;;;13.27;3.35;;;13.10;99.90;;;;;;5093883;28;20496;-61
2022/09/19 05:34:11;;;;;;;9.57;2.60;;;13.20;99.90;;;;;;5076526;28;20082;-61
2022/09/19 05:36:38;;;;;;;9.02;2.20;;;13.20;99.90;;;;;;5076251;28;20043;-61
2022/09/19 05:39:04;;;;;;;12.88;2.92;;;13.20;99.90;;;;;;5093164;28;20047;-61
2022/09/19 05:41:30;;;;;;;9.45;2.63;;;13.20;99.90;;;;;;5076341;28;20037;-61
2022/09/19 05:43:55;;;;;;;8.82;2.00;;;13.20;99.90;;;;;;5093955;28;20077;-61
2022/09/19 05:46:21;;;;;;;10.27;2.40;;;13.20;99.90;;;;;;5093620;28;20123;-61
2022/09/19 05:48:48;;;;;;;15.32;2.60;;;13.20;99.90;;;;;;5093730;28;20495;-62
2022/09/19 05:51:13;;;;;;;9.60;2.05;;;13.20;99.90;;;;;;5075840;28;20499;-61
2022/09/19 05:53:57;;;;;;;10.60;2.38;;;13.20;99.90;;;;;;5093317;28;20035;-61
2022/09/19 05:56:24;;;;;;;11.00;3.17;;;13.20;99.90;;;;;;5076003;28;20048;-61
2022/09/19 05:58:54;;;;;;;14.00;2.28;;;13.10;99.90;;;;;;5075276;28;20141;-61
2022/09/19 06:01:20;;;;;;;16.60;3.00;;;13.10;99.90;;;;;;5075210;28;20513;-62
2022/09/19 06:03:46;;;;;;;10.05;2.40;;;13.10;99.90;;;;;;5093075;28;20486;-62
2022/09/19 06:06:14;;;;;;;10.38;2.65;;;13.10;99.90;;;;;;5075616;28;20044;-61
2022/09/19 06:08:42;;;;;;;13.18;3.17;;;13.10;99.90;;;;;;5072429;28;20121;-61
2022/09/19 06:11:09;;;;;;;9.25;2.70;;;13.10;99.90;;;;;;5059421;28;20056;-61
2022/09/19 06:14:38;;;;;;;10.43;2.17;;;13.20;99.90;;;;;;5093352;28;20396;-62
2022/09/19 06:16:29;;;;;;;14.57;3.50;;;13.20;99.90;;;;;;5067509;28;20463;-61
2022/09/19 06:18:57;;;;;;;12.82;3.20;;;13.10;99.90;;;;;;5071876;28;20065;-61
2022/09/19 06:21:22;;;;;;;12.63;2.45;;;13.20;99.90;;;;;;5088689;28;20068;-62
2022/09/19 06:23:48;;;;;;;15.20;2.97;;;13.20;99.90;;;;;;5089109;28;20544;-62
2022/09/19 06:26:15;;;;;;;10.80;3.03;;;13.30;99.90;;;;;;5068632;28;20393;-62
2022/09/19 06:28:41;;;;;;;11.27;2.45;;;13.30;99.90;;;;;;5065392;28;20048;-62
2022/09/19 06:31:08;;;;;;;13.15;2.90;;;13.30;99.90;;;;;;5092345;28;20039;-62
2022/09/19 06:33:34;;;;;;;10.52;2.10;;;13.40;99.90;;;;;;5054775;28;20047;-62
2022/09/19 06:36:01;;;;;;;11.05;2.90;;;13.50;99.90;;;;;;5049379;28;20049;-61
2022/09/19 06:38:27;;;;;;;12.20;2.67;;;13.50;99.90;;;;;;5052566;28;20051;-62
2022/09/19 06:40:53;;;;;;;13.05;3.13;;;13.60;99.90;;;;;;5069597;28;20066;-62
2022/09/19 06:43:19;;;;;;;10.63;2.47;;;13.70;99.90;;;;;;5051691;28;20390;-61
2022/09/19 06:45:44;;;;;;;13.30;2.45;;;13.70;99.90;;;;;;5104250;28;20098;-62
2022/09/19 06:48:10;;;;;;;13.95;2.97;;;13.60;99.90;;;;;;5092556;28;20066;-61
2022/09/19 06:50:36;;;;;;;12.07;2.65;;;13.70;99.90;;;;;;5110265;28;20171;-61
2022/09/19 06:53:03;;;;;;;14.73;3.00;;;13.70;99.90;;;;;;5109964;28;20126;-61
2022/09/19 06:55:29;;;;;;;10.00;2.45;;;13.70;99.90;;;;;;5089887;28;20040;-62
2022/09/19 06:58:00;;;;;;;14.73;3.38;;;13.70;99.90;;;;;;5070414;28;20044;-62
2022/09/19 07:00:27;;;;;;;11.63;3.10;;;13.80;99.90;;;;;;5088794;28;20794;-61
2022/09/19 07:02:59;;;;;;;9.23;2.33;;;13.70;99.90;;;;;;5089418;28;20043;-62
2022/09/19 07:05:26;;;;;;;9.00;2.35;;;13.70;99.90;;;;;;5072314;28;20052;-62
2022/09/19 07:07:52;;;;;;;9.15;2.10;;;13.70;99.90;;;;;;5089640;28;20394;-62
2022/09/19 07:10:22;;;;;;;13.43;3.35;;;13.70;99.90;;;;;;5089411;28;20512;-61
2022/09/19 07:12:52;;;;;;;13.35;2.60;;;13.70;99.90;;;;;;5089390;28;20392;-62
2022/09/19 07:15:19;;;;;;;12.75;3.13;;;13.80;99.90;;;;;;5089171;28;20384;-62
2022/09/19 07:17:44;;;;;;;11.43;2.15;;;13.80;99.90;;;;;;5070943;28;20040;-61
2022/09/19 07:20:10;;;;;;;11.40;2.75;;;13.90;99.90;;;;;;5090156;28;20036;-62
2022/09/19 07:22:36;;;;;;;9.85;2.80;;;14.10;99.90;;;;;;5075008;28;20141;-62
2022/09/19 07:25:01;;;;;;;12.13;2.65;;;14.10;99.90;;;;;;5108919;28;20063;-62
2022/09/19 07:27:27;;;;;;;11.32;3.20;;;14.20;99.90;;;;;;5069675;28;20040;-62
2022/09/19 07:29:53;;;;;;;10.90;2.53;;;14.20;99.90;;;;;;5071270;28;20926;-62
2022/09/19 07:32:18;;;;;;;20.55;3.60;;;14.20;99.90;;;;;;5088349;28;20082;-62
2022/09/19 07:34:45;;;;;;;14.57;3.50;;;14.20;99.90;;;;;;5089337;28;20055;-61
2022/09/19 07:37:11;;;;;;;18.13;3.42;;;14.20;99.90;;;;;;5087642;28;20047;-61
2022/09/19 07:39:37;;;;;;;13.07;2.75;;;14.20;99.90;;;;;;5054073;28;20089;-62
2022/09/19 07:42:03;;;;;;;10.00;3.40;;;14.20;99.90;;;;;;5087691;28;20140;-62
2022/09/19 07:44:29;;;;;;;14.50;3.65;;;14.30;99.90;;;;;;5089387;28;20032;-62
2022/09/19 07:49:39;;;;;;;14.13;3.38;;;14.50;99.90;;;;;;5088272;28;20048;-61
2022/09/19 07:52:04;;;;;;;12.07;3.03;;;14.60;99.90;;;;;;5088865;28;20054;-61
2022/09/19 07:54:30;;;;;;;10.30;2.33;;;14.60;99.90;;;;;;5087348;28;20040;-62
2022/09/19 07:56:56;;;;;;;9.48;2.25;;;14.60;99.90;;;;;;5088540;28;20388;-62
2022/09/19 07:59:21;;;;;;;10.10;2.70;;;14.60;99.90;;;;;;5088529;28;20040;-62
2022/09/19 08:01:47;;;;;;;13.50;3.08;;;14.60;99.90;;;;;;5088500;28;20036;-61
2022/09/19 08:04:13;;;;;;;8.10;2.78;;;14.60;99.90;;;;;;5089444;28;20445;-61
2022/09/19 08:06:39;;;;;;;12.10;3.10;;;14.60;99.90;;;;;;5075740;28;20033;-62
2022/09/19 08:09:05;;;;;;;13.27;2.65;;;14.60;99.90;;;;;;5048780;28;20497;-62
2022/09/19 08:11:35;;;;;;;12.60;3.13;;;14.60;99.90;;;;;;5050739;28;20044;-62
2022/09/19 08:14:01;;;;;;;10.18;2.30;;;14.60;99.90;;;;;;5070975;28;20154;-61
2022/09/19 08:16:27;;;;;;;12.55;3.03;;;14.50;99.90;;;;;;5091762;28;20083;-62
2022/09/19 08:18:53;;;;;;;10.82;2.60;;;14.50;99.90;;;;;;5081688;28;20059;-62
2022/09/19 08:21:19;;;;;;;14.18;3.35;;;14.50;99.90;;;;;;5086762;28;20036;-63
2022/09/19 08:23:47;;;;;;;13.38;3.10;;;14.60;99.90;;;;;;5090266;28;20036;-62
2022/09/19 08:26:13;;;;;;;15.65;2.78;;;14.60;99.90;;;;;;5057211;28;20089;-62
2022/09/19 08:28:39;;;;;;;12.70;3.05;;;14.70;99.90;;;;;;5077127;28;20044;-63
2022/09/19 08:31:04;;;;;;;8.43;3.13;;;14.80;99.90;;;;;;5076925;28;20131;-62
2022/09/19 08:33:30;;;;;;;12.45;3.42;;;14.70;99.90;;;;;;5077448;28;20044;-62
2022/09/19 08:36:00;;;;;;;15.43;3.30;;;14.80;99.90;;;;;;5094801;28;20039;-62
2022/09/19 08:38:27;;;;;;;10.80;2.65;;;14.80;99.90;;;;;;5095920;28;20040;-63
2022/09/19 08:41:11;;;;;;;11.95;2.45;;;14.80;99.90;;;;;;5077119;28;20039;-62
2022/09/19 08:44:05;;;;;;;11.77;2.50;;;14.80;99.90;;;;;;5077058;28;20047;-62
2022/09/19 08:47:00;;;;;;;13.40;3.40;;;14.90;99.90;;;;;;5077538;28;20044;-62
2022/09/19 08:49:36;;;;;;;14.02;2.60;;;14.90;99.90;;;;;;5095012;28;20094;-62
2022/09/19 08:52:02;;;;;;;13.82;2.30;;;14.90;99.90;;;;;;5064042;28;20496;-62
2022/09/19 08:54:40;;;;;;;10.77;3.03;;;15.00;99.90;;;;;;5057574;28;20090;-62
2022/09/19 08:57:16;;;;;;;9.05;2.30;;;15.20;99.90;;;;;;5073847;28;20086;-62
2022/09/19 08:59:43;;;;;;;13.02;3.33;;;15.30;99.90;;;;;;5075216;28;20052;-62
2022/09/19 09:02:36;;;;;;;11.82;2.65;;;15.30;99.90;;;;;;5074647;28;20040;-62
2022/09/19 09:05:02;;;;;;;9.52;3.08;;;15.30;99.90;;;;;;5073678;28;20056;-62
2022/09/19 09:07:49;;;;;;;8.25;2.00;;;15.20;99.90;;;;;;5074175;28;20040;-62
2022/09/19 09:10:28;;;;;;;8.35;1.60;;;15.20;99.90;;;;;;5093531;28;20040;-62
2022/09/19 09:12:54;;;;;;;6.38;1.67;;;15.10;99.90;;;;;;5094990;28;20110;-62
2022/09/19 09:15:48;;;;;;;8.75;2.17;;;15.00;99.90;;;;;;5070991;28;20537;-62
2022/09/19 09:18:17;;;;;;;10.68;2.50;;;15.00;99.90;;;;;;5076911;28;20047;-62
2022/09/19 09:20:58;;;;;;;7.47;2.17;;;15.00;99.90;;;;;;5075492;28;20036;-62
2022/09/19 09:23:36;;;;;;;9.10;2.22;;;15.00;99.90;;;;;;5074939;28;20051;-62
2022/09/19 09:26:13;;;;;;;12.43;2.75;;;15.10;99.90;;;;;;5091814;28;20040;-62
2022/09/19 09:28:39;;;;;;;12.40;3.30;;;15.30;99.90;;;;;;5066742;28;20037;-62
2022/09/19 09:31:13;;;;;;;11.52;2.20;;;15.30;99.90;;;;;;5055596;28;20044;-62
2022/09/19 09:33:57;;;;;;;8.70;2.45;;;15.20;99.90;;;;;;5087429;28;20511;-62
2022/09/19 09:36:31;;;;;;;9.00;2.22;;;15.00;99.90;;;;;;5094554;28;20075;-62
2022/09/19 09:39:49;;;;;;;7.82;1.73;;;14.70;99.90;;;;;;5088087;28;20051;-62
2022/09/19 09:42:21;;;;;;;9.02;3.15;;;14.50;99.90;;;;;;5087676;28;20044;-62
2022/09/19 09:45:04;;;;;;;12.40;3.05;;;14.30;99.90;;;;;;5075470;28;20111;-62
2022/09/19 09:47:43;;;;;;;15.57;3.45;;;14.20;99.90;;;;;;5080130;28;20501;-62
2022/09/19 09:50:44;;;;;;;12.52;2.70;;;14.10;99.90;;;;;;5078558;28;20024;-62
2022/09/19 09:53:20;;;;;;;11.00;2.63;;;14.00;99.90;;;;;;5046372;28;20047;-62
2022/09/19 10:05:17;;;;;;;12.07;3.53;;;14.30;99.90;;;;;;5071962;28;20127;-61
2022/09/19 10:07:58;;;;;;;13.60;3.72;;;14.50;99.90;;;;;;5073118;28;20040;-61
2022/09/19 10:10:27;;;;;;;12.77;3.38;;;14.70;99.90;;;;;;5069855;28;20362;-61
2022/09/19 10:13:02;;;;;;;13.70;3.42;;;14.80;99.90;;;;;;5092646;28;20043;-61
2022/09/19 10:15:31;;;;;;;9.60;2.35;;;14.80;99.90;;;;;;5094026;28;20047;-62
2022/09/19 10:18:06;;;;;;;17.20;3.58;;;14.80;99.90;;;;;;5073570;28;20134;-61
2022/09/19 10:20:38;;;;;;;12.70;3.08;;;14.80;99.90;;;;;;5093426;28;20122;-61
2022/09/19 10:23:11;;;;;;;12.73;2.88;;;14.70;99.90;;;;;;5091937;28;20123;-61
2022/09/19 10:25:37;;;;;;;13.93;2.88;;;14.70;99.90;;;;;;5075606;28;20490;-61
2022/09/19 10:28:29;;;;;;;13.95;3.20;;;14.70;99.90;;;;;;5092740;28;20126;-61
2022/09/19 10:31:01;;;;;;;10.40;2.35;;;14.80;99.90;;;;;;5091456;28;20503;-61
2022/09/19 10:33:44;;;;;;;11.82;2.47;;;14.90;99.90;;;;;;5075321;28;20040;-61
2022/09/19 10:36:32;;;;;;;9.30;3.05;;;15.10;99.90;;;;;;5092939;28;20044;-61
2022/09/19 10:39:09;;;;;;;9.35;2.50;;;15.20;99.90;;;;;;5074904;28;20097;-61
2022/09/19 10:41:35;;;;;;;14.10;3.35;;;15.30;99.90;;;;;;5074832;28;20040;-62
2022/09/19 10:44:27;;;;;;;11.95;2.55;;;15.40;99.90;;;;;;5093082;28;20194;-62
2022/09/19 10:46:56;;;;;;;8.13;2.38;;;15.60;99.90;;;;;;5080042;28;20094;-62
2022/09/19 10:49:28;;;;;;;9.38;2.55;;;15.70;99.90;;;;;;5092715;28;20085;-62
2022/09/19 10:51:59;;;;;;;12.20;2.90;;;15.70;99.90;;;;;;5091909;28;20380;-61
2022/09/19 10:54:31;;;;;;;12.27;2.92;;;15.70;99.90;;;;;;5074722;28;20067;-62
2022/09/19 10:57:01;;;;;;;13.35;3.42;;;15.60;99.90;;;;;;5092498;28;20086;-62
2022/09/19 10:59:36;;;;;;;15.02;2.85;;;15.60;99.90;;;;;;5074802;28;20036;-62
2022/09/19 11:02:10;;;;;;;13.75;3.28;;;15.70;99.90;;;;;;5092299;28;20489;-62
2022/09/19 11:04:37;;;;;;;20.05;4.53;;;15.70;99.90;;;;;;5075086;28;20048;-62
2022/09/19 11:07:16;;;;;;;10.75;2.40;;;15.60;99.90;;;;;;5074691;28;20075;-62
2022/09/19 11:09:44;;;;;;;12.23;3.40;;;15.50;99.90;;;;;;5081798;28;20115;-62
2022/09/19 11:12:15;;;;;;;11.07;2.47;;;15.50;99.90;;;;;;5037803;28;20089;-61
2022/09/19 11:14:41;;;;;;;9.13;2.45;;;15.60;99.90;;;;;;5070596;28;20056;-62
2022/09/19 11:17:31;;;;;;;15.35;2.95;;;15.70;99.90;;;;;;5053014;28;20043;-62
2022/09/19 11:20:16;;;;;;;13.50;3.08;;;15.70;99.90;;;;;;5070944;28;20040;-62
2022/09/19 11:23:03;;;;;;;11.43;2.63;;;15.70;99.90;;;;;;5053329;28;20065;-62
2022/09/19 11:25:54;;;;;;;10.98;3.17;;;15.60;99.90;;;;;;5083247;28;20424;-62
2022/09/19 11:28:48;;;;;;;13.32;2.50;;;15.60;99.90;;;;;;5089068;28;20047;-62
2022/09/19 11:31:44;;;;;;;9.75;2.38;;;15.60;99.90;;;;;;5067820;28;20043;-62
2022/09/19 11:34:40;;;;;;;13.48;3.10;;;15.70;99.90;;;;;;5069759;28;20105;-62
2022/09/19 11:37:11;;;;;;;12.27;2.35;;;15.70;99.90;;;;;;5069457;28;20048;-62
2022/09/19 11:40:08;;;;;;;13.93;2.75;;;15.60;99.90;;;;;;5067993;28;20106;-62
2022/09/19 11:42:54;;;;;;;8.65;2.10;;;15.60;99.90;;;;;;5072790;28;20067;-62
2022/09/19 11:45:20;;;;;;;9.23;2.90;;;15.60;99.90;;;;;;5088930;28;20048;-62
2022/09/19 11:48:24;;;;;;;7.95;2.30;;;15.70;99.90;;;;;;5065986;28;20083;-62
2022/09/19 11:51:12;;;;;;;13.52;2.80;;;15.80;99.90;;;;;;5085125;28;20047;-63
2022/09/19 11:53:43;;;;;;;11.68;2.58;;;16.00;99.90;;;;;;5090575;28;20055;-62
2022/09/19 11:56:38;;;;;;;10.63;2.42;;;16.00;99.90;;;;;;5088657;28;20040;-62
2022/09/19 11:59:49;;;;;;;9.88;2.65;;;15.90;99.90;;;;;;5108441;28;20054;-63
2022/09/19 12:02:44;;;;;;;12.80;2.45;;;15.70;99.90;;;;;;5091106;28;20058;-63
2022/09/19 12:05:18;;;;;;;10.25;2.65;;;15.60;99.90;;;;;;5070599;28;20039;-62
2022/09/19 12:07:47;;;;;;;12.57;3.00;;;15.60;99.90;;;;;;5088343;28;20071;-62
2022/09/19 12:10:25;;;;;;;10.70;2.63;;;15.60;99.90;;;;;;5095056;28;20104;-62
2022/09/19 12:13:03;;;;;;;14.40;3.22;;;15.60;99.90;;;;;;5092787;28;20397;-62
2022/09/19 12:15:35;;;;;;;21.52;3.92;;;15.30;99.90;;;;;;5075548;28;20135;-62
2022/09/19 12:18:20;;;;;;;12.43;2.60;;;14.90;99.90;;;;;;5093169;28;20391;-61
2022/09/19 12:20:49;;;;;;;16.48;3.38;;;14.60;99.90;;;;;;5090321;28;20048;-61
2022/09/19 12:26:35;;;;;;;17.00;3.72;;;14.10;99.90;;;;;;5112443;28;20134;-61
2022/09/19 12:29:08;;;;;;;9.23;3.10;;;14.00;99.90;;;;;;5073563;28;20050;-61
2022/09/19 12:31:39;;;;;;;17.67;3.45;;;13.90;99.90;;;;;;5092597;28;20040;-61
2022/09/19 12:34:21;;;;;;;17.05;3.95;;;13.90;99.90;;;;;;5073460;28;20137;-62
2022/09/19 12:36:52;;;;;;;14.27;3.50;;;13.80;99.90;;;;;;5056016;28;20059;-61
2022/09/19 12:39:35;;;;;;;15.70;3.15;;;13.80;99.90;;;;;;5075385;28;20036;-61
2022/09/19 12:42:11;;;;;;;13.52;3.20;;;13.90;99.90;;;;;;5090850;28;20052;-61
2022/09/19 12:45:05;;;;;;;10.40;2.63;;;13.80;99.90;;;;;;5075081;28;20044;-62
2022/09/19 12:48:00;;;;;;;11.02;2.80;;;13.80;99.90;;;;;;5075306;28;20048;-61
2022/09/19 12:50:36;;;;;;;10.18;2.80;;;13.70;99.90;;;;;;5077129;28;20101;-61
2022/09/19 12:53:21;;;;;;;9.95;2.55;;;13.70;99.90;;;;;;5094788;28;20036;-61
2022/09/19 12:56:23;;;;;;;10.15;2.92;;;13.80;99.90;;;;;;5094132;28;20051;-62
2022/09/19 12:59:00;;;;;;;12.43;2.45;;;13.90;99.90;;;;;;5095114;28;20115;-61
2022/09/19 13:02:01;;;;;;;12.57;2.85;;;14.10;99.90;;;;;;5077369;28;20119;-62
2022/09/19 13:04:39;;;;;;;13.77;3.47;;;14.30;99.90;;;;;;5080637;28;20048;-61
2022/09/19 13:07:09;;;;;;;16.20;3.22;;;14.60;99.90;;;;;;5078106;28;20044;-62
2022/09/19 13:10:05;;;;;;;13.65;3.25;;;14.80;99.90;;;;;;5056190;28;20046;-61
2022/09/19 13:12:49;;;;;;;11.05;2.70;;;14.90;99.90;;;;;;5074418;28;20040;-61
2022/09/19 13:15:38;;;;;;;16.33;3.03;;;15.10;99.90;;;;;;5074153;28;20044;-61
2022/09/19 13:23:36;;;;;;;10.18;2.40;;;15.50;99.90;;;;;;5076121;28;20060;-61
2022/09/19 13:26:17;;;;;;;11.73;2.40;;;15.50;99.90;;;;;;5093900;28;20076;-61
2022/09/19 13:28:49;;;;;;;13.05;2.33;;;15.60;99.90;;;;;;5094887;28;20062;-61
2022/09/19 13:31:17;;;;;;;11.20;2.13;;;15.60;99.90;;;;;;5076466;28;20442;-61
2022/09/19 13:33:47;;;;;;;10.57;2.63;;;15.50;99.90;;;;;;5076640;28;20039;-61